24h
KLIENDITUGI:
Saartelennuliinid: +372 58856336 (24/7)
Estairi piletikassa lennujaamas:
+372 6058887; +372 55603687

13.08.2019 hommikune Transaviabaltika lend KTB670 kell 07:15 (kohalik aeg) Tallinn - Kärdla väljalend ja KTB671 kell 08:00 Kärdla – Tallinn väljalend hilineb 3,5 tundi. KTB670 TLL-KDL uus väljalennu aeg on kell 10:45 (kohalik aeg) ja KTB671 KDL – TLL uus väljalennu aeg on kell 11:30 (kohalik aeg). Lennu hilinemise ilmastikuolud Kärdla Lennuväljal. Lisainformatsioon telefonil 5885 6336, informatsiooni vahetus e-mail: [email protected]

EEKA Kärdla lennuväli FCEO32 EETN 130300

TAF EEKA 130300Z 1304/1310 19008KT 8000 BKN008 TEMPO 1304/1307 BKN004 PROB40

TEMPO 1304/1307 3000 BR BECMG 1305/1307 25010KT TEMPO 1307/1310 SCT008 SCT025CB=

SPECI EEKA 130416Z 19007KT 160V220 2600 BR OVC002 16/15 Q1008=
Kuupäev: 
13/08/2019